Time;durP1;ratioP1;P1;durP2;ratioP2;P2;SDS_P1;SDS_P2;PMS_P1;PMS_P2;Temp;Humidity;BMP_temperature;BMP_pressure;BME280_temperature;BME280_humidity;BME280_pressure;Samples;Min_cycle;Max_cycle;Signal;HPM_P1;HPM_P2
2023/04/16 00:00:32;;;;;;;;;;;9.30;99.90;;;;;;5174122;27;19915;-43
2023/04/16 00:02:58;;;;;;;;;;;9.20;99.90;;;;;;5174841;27;19907;-41
2023/04/16 00:05:23;;;;;;;;;;;9.30;99.90;;;;;;5175281;27;19913;-41
2023/04/16 00:07:50;;;;;;;;;;;9.30;99.90;;;;;;5174192;27;20380;-41
2023/04/16 00:10:16;;;;;;;;;;;9.20;99.90;;;;;;5178426;27;20183;-41
2023/04/16 00:12:41;;;;;;;;;;;9.20;99.90;;;;;;5179089;27;20122;-41
2023/04/16 00:15:07;;;;;;;;;;;9.30;99.90;;;;;;5178260;27;19907;-41
2023/04/16 00:17:33;;;;;;;;;;;9.20;99.90;;;;;;5178994;27;19948;-42
2023/04/16 00:19:58;;;;;;;;;;;9.30;99.90;;;;;;5178952;27;19907;-43
2023/04/16 00:22:24;;;;;;;;;;;9.20;99.90;;;;;;5178160;27;19911;-41
2023/04/16 00:24:49;;;;;;;;;;;9.20;99.90;;;;;;5179000;27;19913;-41
2023/04/16 00:27:15;;;;;;;;;;;9.20;99.90;;;;;;5178812;27;19933;-41
2023/04/16 00:29:40;;;;;;;;;;;9.20;99.90;;;;;;5177586;27;20006;-40
2023/04/16 00:32:06;;;;;;;;;;;9.20;99.90;;;;;;5178923;27;19918;-41
2023/04/16 00:34:31;;;;;;;;;;;9.20;99.90;;;;;;5178673;27;20448;-41
2023/04/16 00:36:57;;;;;;;;;;;9.20;99.90;;;;;;5178296;27;20198;-40
2023/04/16 00:39:22;;;;;;;;;;;9.20;99.90;;;;;;5178954;27;19907;-41
2023/04/16 00:41:48;;;;;;;;;;;9.20;99.90;;;;;;5178229;27;19919;-41
2023/04/16 00:44:13;;;;;;;;;;;9.10;99.90;;;;;;5177811;27;20342;-41
2023/04/16 00:46:40;;;;;;;;;;;9.10;99.90;;;;;;5178508;27;19958;-40
2023/04/16 00:49:06;;;;;;;;;;;9.10;99.90;;;;;;5178197;27;20001;-41
2023/04/16 00:51:31;;;;;;;;;;;9.10;99.90;;;;;;5177298;27;20431;-41
2023/04/16 00:53:57;;;;;;;;;;;9.10;99.90;;;;;;5178518;27;19911;-41
2023/04/16 00:56:23;;;;;;;;;;;9.10;99.90;;;;;;5178215;27;19990;-41
2023/04/16 00:58:49;;;;;;;;;;;9.10;99.90;;;;;;5174688;27;19907;-40
2023/04/16 01:01:14;;;;;;;;;;;9.10;99.90;;;;;;5157515;27;19949;-40
2023/04/16 01:03:43;;;;;;;;;;;9.00;99.90;;;;;;5173007;27;19907;-41
2023/04/16 01:06:09;;;;;;;;;;;9.00;99.90;;;;;;5178221;27;19954;-42
2023/04/16 01:08:35;;;;;;;;;;;9.00;99.90;;;;;;5173026;27;19973;-41
2023/04/16 01:11:00;;;;;;;;;;;9.00;99.90;;;;;;5160039;27;20444;-41
2023/04/16 01:13:26;;;;;;;;;;;9.00;99.90;;;;;;5177848;27;19918;-43
2023/04/16 01:15:51;;;;;;;;;;;9.00;99.90;;;;;;5178271;27;19914;-42
2023/04/16 01:18:18;;;;;;;;;;;9.00;99.90;;;;;;5177108;27;19930;-41
2023/04/16 01:20:43;;;;;;;;;;;9.00;99.90;;;;;;5176690;27;19919;-41
2023/04/16 01:23:10;;;;;;;;;;;9.00;99.90;;;;;;5177908;27;20387;-42
2023/04/16 01:25:35;;;;;;;;;;;8.90;99.90;;;;;;5176758;27;19918;-42
2023/04/16 01:28:01;;;;;;;;;;;9.00;99.90;;;;;;5175567;27;19907;-43
2023/04/16 01:30:26;;;;;;;;;;;9.00;99.90;;;;;;5156476;27;19988;-41
2023/04/16 01:32:52;;;;;;;;;;;9.00;99.90;;;;;;5156037;27;20358;-42
2023/04/16 01:35:17;;;;;;;;;;;9.00;99.90;;;;;;5156773;27;19952;-41
2023/04/16 01:37:43;;;;;;;;;;;9.00;99.90;;;;;;5156657;27;20281;-40
2023/04/16 01:40:09;;;;;;;;;;;8.90;99.90;;;;;;5155732;27;19915;-40
2023/04/16 01:42:34;;;;;;;;;;;8.90;99.90;;;;;;5172641;27;20357;-41
2023/04/16 01:45:00;;;;;;;;;;;8.90;99.90;;;;;;5177483;27;19960;-42
2023/04/16 01:47:25;;;;;;;;;;;8.90;99.90;;;;;;5176490;27;19963;-42
2023/04/16 01:49:51;;;;;;;;;;;8.90;99.90;;;;;;5177104;27;19911;-40
2023/04/16 01:52:16;;;;;;;;;;;8.90;99.90;;;;;;5177240;27;19914;-40
2023/04/16 01:54:42;;;;;;;;;;;8.90;99.90;;;;;;5176248;27;19914;-40
2023/04/16 01:57:08;;;;;;;;;;;8.80;99.90;;;;;;5177466;27;19943;-40
2023/04/16 01:59:33;;;;;;;;;;;8.80;99.90;;;;;;5177009;27;19914;-41
2023/04/16 02:02:01;;;;;;;;;;;8.80;99.90;;;;;;5176336;27;20281;-42
2023/04/16 02:04:26;;;;;;;;;;;8.80;99.90;;;;;;5176230;27;19918;-41
2023/04/16 02:06:52;;;;;;;;;;;8.80;99.90;;;;;;5176138;27;19907;-41
2023/04/16 02:09:17;;;;;;;;;;;8.80;99.90;;;;;;5176893;27;19913;-41
2023/04/16 02:11:43;;;;;;;;;;;8.80;99.90;;;;;;5177089;27;20341;-42
2023/04/16 02:14:08;;;;;;;;;;;8.80;99.90;;;;;;5175979;27;19910;-41
2023/04/16 02:16:34;;;;;;;;;;;8.70;99.90;;;;;;5176742;27;19906;-40
2023/04/16 02:18:59;;;;;;;;;;;8.70;99.90;;;;;;5176856;27;19914;-40
2023/04/16 02:21:26;;;;;;;;;;;8.80;99.90;;;;;;5175814;27;19925;-41
2023/04/16 02:23:51;;;;;;;;;;;8.70;99.90;;;;;;5176519;27;20365;-43
2023/04/16 02:26:17;;;;;;;;;;;8.70;99.90;;;;;;5176641;27;19960;-42
2023/04/16 02:28:42;;;;;;;;;;;8.70;99.90;;;;;;5175571;27;19919;-40
2023/04/16 02:31:08;;;;;;;;;;;8.70;99.90;;;;;;5176561;27;19958;-41
2023/04/16 02:33:34;;;;;;;;;;;8.60;99.90;;;;;;5175906;27;19934;-42
2023/04/16 02:36:00;;;;;;;;;;;8.60;99.90;;;;;;5175657;27;19914;-41
2023/04/16 02:38:25;;;;;;;;;;;8.60;99.90;;;;;;5176125;27;19911;-41
2023/04/16 02:40:51;;;;;;;;;;;8.60;99.90;;;;;;5176120;27;20129;-41
2023/04/16 02:43:16;;;;;;;;;;;8.60;99.90;;;;;;5175484;27;19907;-41
2023/04/16 02:45:43;;;;;;;;;;;8.60;99.90;;;;;;5175962;27;19998;-39
2023/04/16 02:48:08;;;;;;;;;;;8.50;99.90;;;;;;5176258;27;20051;-41
2023/04/16 02:50:34;;;;;;;;;;;8.60;99.90;;;;;;5175297;27;20382;-41
2023/04/16 02:53:00;;;;;;;;;;;8.50;99.90;;;;;;5175982;27;19907;-40
2023/04/16 02:55:25;;;;;;;;;;;8.60;99.90;;;;;;5175723;27;19910;-42
2023/04/16 02:57:51;;;;;;;;;;;8.50;99.90;;;;;;5175177;27;19907;-40
2023/04/16 03:00:17;;;;;;;;;;;8.50;99.90;;;;;;5175898;27;19911;-41
2023/04/16 03:02:42;;;;;;;;;;;8.50;99.90;;;;;;5175794;27;20337;-41
2023/04/16 03:05:08;;;;;;;;;;;8.50;99.90;;;;;;5174913;27;19911;-41
2023/04/16 03:07:34;;;;;;;;;;;8.50;99.90;;;;;;5156994;27;19952;-41
2023/04/16 03:09:59;;;;;;;;;;;8.50;99.90;;;;;;5175916;27;20172;-41
2023/04/16 03:12:25;;;;;;;;;;;8.50;99.90;;;;;;5174715;27;19915;-41
2023/04/16 03:14:53;;;;;;;;;;;8.50;99.90;;;;;;5175809;27;20425;-41
2023/04/16 03:17:19;;;;;;;;;;;8.50;99.90;;;;;;5174887;27;19910;-42
2023/04/16 03:19:44;;;;;;;;;;;8.50;99.90;;;;;;5175647;27;19906;-40
2023/04/16 03:22:10;;;;;;;;;;;8.50;99.90;;;;;;5175438;27;20017;-41
2023/04/16 03:24:37;;;;;;;;;;;8.50;99.90;;;;;;5174679;27;19911;-40
2023/04/16 03:27:02;;;;;;;;;;;8.50;99.90;;;;;;5175631;27;19907;-40
2023/04/16 03:29:28;;;;;;;;;;;8.50;99.90;;;;;;5175115;27;19942;-41
2023/04/16 03:31:53;;;;;;;;;;;8.50;99.90;;;;;;5174794;27;19910;-41
2023/04/16 03:34:18;;;;;;;;;;;8.50;99.90;;;;;;5174954;27;19966;-43
2023/04/16 03:36:44;;;;;;;;;;;8.50;99.90;;;;;;5175228;27;20005;-41
2023/04/16 03:39:09;;;;;;;;;;;8.50;99.90;;;;;;5174449;27;20362;-41
2023/04/16 03:41:35;;;;;;;;;;;8.50;99.90;;;;;;5175196;27;19922;-42
2023/04/16 03:44:00;;;;;;;;;;;8.50;99.90;;;;;;5174827;27;20337;-43
2023/04/16 03:46:26;;;;;;;;;;;8.60;99.90;;;;;;5155746;27;19907;-41
2023/04/16 03:48:51;;;;;;;;;;;8.60;99.90;;;;;;5174918;27;19918;-41
2023/04/16 03:51:17;;;;;;;;;;;8.60;99.90;;;;;;5164023;27;19938;-40
2023/04/16 03:53:42;;;;;;;;;;;8.60;99.90;;;;;;5172322;27;19907;-41
2023/04/16 03:56:08;;;;;;;;;;;8.60;99.90;;;;;;5154362;27;20437;-42
2023/04/16 03:58:33;;;;;;;;;;;8.60;99.90;;;;;;5168397;27;20348;-41
2023/04/16 04:00:59;;;;;;;;;;;8.60;99.90;;;;;;5153480;27;19915;-41
2023/04/16 04:03:25;;;;;;;;;;;8.60;99.90;;;;;;5154511;27;19927;-43
2023/04/16 04:05:50;;;;;;;;;;;8.60;99.90;;;;;;5154187;27;19914;-42
2023/04/16 04:08:16;;;;;;;;;;;8.60;99.90;;;;;;5153425;27;19922;-41
2023/04/16 04:10:41;;;;;;;;;;;8.60;99.90;;;;;;5154079;27;20393;-41
2023/04/16 04:13:07;;;;;;;;;;;8.60;99.90;;;;;;5154230;27;20387;-42
2023/04/16 04:15:32;;;;;;;;;;;8.60;99.90;;;;;;5153313;27;20044;-40
2023/04/16 04:17:58;;;;;;;;;;;8.60;99.90;;;;;;5167674;27;19997;-41
2023/04/16 04:20:23;;;;;;;;;;;8.60;99.90;;;;;;5174217;27;20364;-41
2023/04/16 04:22:49;;;;;;;;;;;8.60;99.90;;;;;;5174991;27;19934;-41
2023/04/16 04:25:15;;;;;;;;;;;8.60;99.90;;;;;;5174666;27;20353;-41
2023/04/16 04:27:41;;;;;;;;;;;8.60;99.90;;;;;;5174061;27;19907;-41
2023/04/16 04:30:06;;;;;;;;;;;8.60;99.90;;;;;;5174675;27;20278;-41
2023/04/16 04:32:32;;;;;;;;;;;8.60;99.90;;;;;;5174797;27;19945;-41
2023/04/16 04:34:58;;;;;;;;;;;8.50;99.90;;;;;;5174114;27;19914;-40
2023/04/16 04:37:24;;;;;;;;;;;8.60;99.90;;;;;;5174451;27;19911;-41
2023/04/16 04:39:49;;;;;;;;;;;8.60;99.90;;;;;;5174783;27;20384;-41
2023/04/16 04:42:18;;;;;;;;;;;8.60;99.90;;;;;;5173922;27;19915;-41
2023/04/16 04:44:44;;;;;;;;;;;8.60;99.90;;;;;;5174683;27;20364;-40
2023/04/16 04:47:09;;;;;;;;;;;8.60;99.90;;;;;;5174807;27;19914;-41
2023/04/16 04:49:35;;;;;;;;;;;8.60;99.90;;;;;;5173808;27;20349;-41
2023/04/16 04:52:00;;;;;;;;;;;8.60;99.90;;;;;;5174791;27;19921;-41
2023/04/16 04:54:27;;;;;;;;;;;8.60;99.90;;;;;;5174496;27;19911;-40
2023/04/16 04:56:52;;;;;;;;;;;8.60;99.90;;;;;;5176413;27;20010;-41
2023/04/16 04:59:19;;;;;;;;;;;8.60;99.90;;;;;;5178346;27;20067;-40
2023/04/16 05:01:44;;;;;;;;;;;8.60;99.90;;;;;;5178118;27;19915;-42
2023/04/16 05:04:10;;;;;;;;;;;8.60;99.90;;;;;;5177408;27;19959;-41
2023/04/16 05:06:35;;;;;;;;;;;8.50;99.90;;;;;;5177794;27;19987;-40
2023/04/16 05:09:01;;;;;;;;;;;8.50;99.90;;;;;;5178130;27;19990;-42
2023/04/16 05:11:26;;;;;;;;;;;8.50;99.90;;;;;;5177275;27;20253;-42
2023/04/16 05:13:51;;;;;;;;;;;8.50;99.90;;;;;;5178072;27;19911;-42
2023/04/16 05:16:17;;;;;;;;;;;8.50;99.90;;;;;;5177744;27;20353;-42
2023/04/16 05:18:42;;;;;;;;;;;8.50;99.90;;;;;;5176937;27;20005;-41
2023/04/16 05:21:08;;;;;;;;;;;8.50;99.90;;;;;;5177721;27;19915;-40
2023/04/16 05:23:33;;;;;;;;;;;8.50;99.90;;;;;;5177679;27;20022;-41
2023/04/16 05:25:59;;;;;;;;;;;8.50;99.90;;;;;;5177191;27;19914;-40
2023/04/16 05:28:24;;;;;;;;;;;8.50;99.90;;;;;;5177381;27;19911;-42
2023/04/16 05:30:50;;;;;;;;;;;8.50;99.90;;;;;;5176181;27;19918;-42
2023/04/16 05:33:15;;;;;;;;;;;8.50;99.90;;;;;;5177613;27;19954;-43
2023/04/16 05:35:41;;;;;;;;;;;8.50;99.90;;;;;;5177583;27;19929;-41
2023/04/16 05:38:06;;;;;;;;;;;8.50;99.90;;;;;;5176785;27;19911;-41
2023/04/16 05:40:32;;;;;;;;;;;8.50;99.90;;;;;;5177227;27;19972;-42
2023/04/16 05:42:57;;;;;;;;;;;8.50;99.90;;;;;;5177494;27;19914;-41
2023/04/16 05:45:23;;;;;;;;;;;8.50;99.90;;;;;;5176600;27;19916;-43
2023/04/16 05:47:48;;;;;;;;;;;8.50;99.90;;;;;;5177237;27;19907;-40
2023/04/16 05:50:14;;;;;;;;;;;8.40;99.90;;;;;;5176872;27;20407;-42
2023/04/16 05:52:39;;;;;;;;;;;8.40;99.90;;;;;;5176308;27;20345;-40
2023/04/16 05:55:06;;;;;;;;;;;8.40;99.90;;;;;;5177337;27;20258;-42
2023/04/16 05:57:32;;;;;;;;;;;8.40;99.90;;;;;;5177024;27;20373;-41
2023/04/16 05:59:57;;;;;;;;;;;8.40;99.90;;;;;;5176252;27;19931;-40
2023/04/16 06:02:23;;;;;;;;;;;8.30;99.90;;;;;;5177095;27;19911;-41
2023/04/16 06:04:48;;;;;;;;;;;8.30;99.90;;;;;;5176930;27;20009;-42
2023/04/16 06:07:14;;;;;;;;;;;8.30;99.90;;;;;;5175832;27;19959;-41
2023/04/16 06:09:39;;;;;;;;;;;8.30;99.90;;;;;;5176865;27;20273;-43
2023/04/16 06:12:05;;;;;;;;;;;8.30;99.90;;;;;;5176979;27;19953;-41
2023/04/16 06:14:30;;;;;;;;;;;8.30;99.90;;;;;;5176108;27;20009;-41
2023/04/16 06:16:56;;;;;;;;;;;8.40;99.90;;;;;;5176598;27;19911;-41
2023/04/16 06:19:21;;;;;;;;;;;8.40;99.90;;;;;;5174656;27;19963;-41
2023/04/16 06:21:47;;;;;;;;;;;8.50;99.90;;;;;;5175851;27;20394;-42
2023/04/16 06:24:12;;;;;;;;;;;8.50;99.90;;;;;;5176689;27;19911;-43
2023/04/16 06:26:38;;;;;;;;;;;8.50;99.90;;;;;;5166627;27;19907;-43
2023/04/16 06:29:03;;;;;;;;;;;8.50;99.90;;;;;;5166016;27;19919;-42
2023/04/16 06:31:29;;;;;;;;;;;8.50;99.90;;;;;;5176318;27;20361;-43
2023/04/16 06:33:54;;;;;;;;;;;8.50;99.90;;;;;;5176406;27;20017;-41
2023/04/16 06:36:20;;;;;;;;;;;8.60;99.90;;;;;;5166454;27;19917;-43
2023/04/16 06:38:45;;;;;;;;;;;8.60;99.90;;;;;;5168108;27;19907;-42
2023/04/16 06:41:12;;;;;;;;;;;8.70;99.90;;;;;;5154990;27;19915;-41
2023/04/16 06:43:37;;;;;;;;;;;8.70;99.90;;;;;;5156545;27;20277;-43
2023/04/16 06:46:03;;;;;;;;;;;8.80;99.90;;;;;;5155406;27;19972;-40
2023/04/16 06:48:28;;;;;;;;;;;8.90;99.90;;;;;;5173260;27;19917;-43
2023/04/16 06:50:55;;;;;;;;;;;8.90;99.90;;;;;;5157610;27;19929;-41
2023/04/16 06:53:20;;;;;;;;;;;9.00;99.90;;;;;;5164090;27;19907;-41
2023/04/16 06:55:46;;;;;;;;;;;9.10;99.90;;;;;;5175159;27;19963;-41
2023/04/16 06:58:11;;;;;;;;;;;9.10;99.90;;;;;;5175555;27;19907;-42
2023/04/16 07:00:37;;;;;;;;;;;9.20;99.90;;;;;;5175276;27;19918;-41
2023/04/16 07:03:02;;;;;;;;;;;9.30;99.90;;;;;;5173963;27;19910;-41
2023/04/16 07:05:27;;;;;;;;;;;9.30;99.90;;;;;;5174876;27;19906;-41
2023/04/16 07:07:55;;;;;;;;;;;9.40;99.90;;;;;;5175764;27;19911;-41
2023/04/16 07:10:21;;;;;;;;;;;9.50;99.90;;;;;;5174652;27;19911;-41
2023/04/16 07:12:46;;;;;;;;;;;9.60;99.90;;;;;;5175361;27;19913;-41
2023/04/16 07:15:12;;;;;;;;;;;9.70;99.90;;;;;;5155365;27;19911;-42
2023/04/16 07:17:37;;;;;;;;;;;9.70;99.90;;;;;;5172057;27;19932;-43
2023/04/16 07:20:03;;;;;;;;;;;9.70;99.90;;;;;;5174747;27;20353;-40
2023/04/16 07:22:28;;;;;;;;;;;9.70;99.90;;;;;;5175426;27;19973;-41
2023/04/16 07:24:54;;;;;;;;;;;9.70;99.90;;;;;;5174218;27;19959;-41
2023/04/16 07:27:20;;;;;;;;;;;9.70;99.90;;;;;;5173595;27;19911;-43
2023/04/16 07:29:45;;;;;;;;;;;9.70;99.90;;;;;;5175213;27;20013;-41
2023/04/16 07:32:11;;;;;;;;;;;9.70;99.90;;;;;;5174590;27;19913;-42
2023/04/16 07:34:37;;;;;;;;;;;9.70;99.90;;;;;;5175182;27;19936;-42
2023/04/16 07:37:02;;;;;;;;;;;9.70;99.90;;;;;;5174949;27;19955;-41
2023/04/16 07:39:28;;;;;;;;;;;9.70;99.90;;;;;;5174460;27;19906;-42
2023/04/16 07:41:53;;;;;;;;;;;9.70;99.90;;;;;;5175643;27;19962;-42
2023/04/16 07:44:19;;;;;;;;;;;9.70;99.90;;;;;;5175231;27;20276;-41
2023/04/16 07:46:44;;;;;;;;;;;9.70;99.90;;;;;;5174543;27;20414;-40
2023/04/16 07:49:10;;;;;;;;;;;9.70;99.90;;;;;;5157809;27;19963;-41
2023/04/16 07:51:35;;;;;;;;;;;9.80;99.90;;;;;;5158017;27;20002;-41
2023/04/16 07:54:01;;;;;;;;;;;9.90;99.90;;;;;;5171358;27;19918;-42
2023/04/16 07:56:27;;;;;;;;;;;9.90;99.90;;;;;;5175236;27;19911;-43
2023/04/16 07:58:52;;;;;;;;;;;9.90;99.90;;;;;;5173824;27;19910;-42
2023/04/16 08:01:17;;;;;;;;;;;10.00;99.90;;;;;;5174324;27;19919;-42
2023/04/16 08:03:43;;;;;;;;;;;10.10;99.90;;;;;;5164642;27;19907;-42
2023/04/16 08:06:09;;;;;;;;;;;10.10;99.90;;;;;;5160342;27;19915;-42
2023/04/16 08:08:34;;;;;;;;;;;10.20;99.90;;;;;;5162181;27;19911;-40
2023/04/16 08:11:00;;;;;;;;;;;10.20;99.90;;;;;;5159736;27;19910;-41
2023/04/16 08:13:25;;;;;;;;;;;10.30;99.90;;;;;;5171110;27;19969;-41
2023/04/16 08:15:51;;;;;;;;;;;10.40;99.90;;;;;;5154146;27;19975;-40
2023/04/16 08:18:16;;;;;;;;;;;10.50;99.90;;;;;;5154040;27;19911;-41
2023/04/16 08:20:42;;;;;;;;;;;10.60;99.90;;;;;;5162634;27;20399;-42
2023/04/16 08:23:07;;;;;;;;;;;10.70;99.90;;;;;;5155837;27;19998;-42
2023/04/16 08:25:34;;;;;;;;;;;10.80;99.90;;;;;;5168287;27;19918;-41
2023/04/16 08:27:59;;;;;;;;;;;10.80;99.90;;;;;;5167593;27;19911;-42
2023/04/16 08:30:25;;;;;;;;;;;10.80;99.90;;;;;;5175610;27;20394;-41
2023/04/16 08:32:50;;;;;;;;;;;10.90;99.90;;;;;;5178052;27;19911;-42
2023/04/16 08:35:16;;;;;;;;;;;11.00;99.90;;;;;;5177488;27;20333;-40
2023/04/16 08:37:41;;;;;;;;;;;11.00;99.90;;;;;;5172256;27;19910;-41
2023/04/16 08:40:07;;;;;;;;;;;11.20;99.90;;;;;;5178474;27;19934;-42
2023/04/16 08:42:37;;;;;;;;;;;11.30;99.90;;;;;;5176885;27;19915;-41
2023/04/16 08:45:05;;;;;;;;;;;11.40;99.90;;;;;;5170488;27;19911;-42
2023/04/16 08:47:33;;;;;;;;;;;11.60;99.90;;;;;;5159683;27;20365;-41
2023/04/16 08:49:59;;;;;;;;;;;11.70;99.90;;;;;;5162962;27;20365;-41
2023/04/16 08:52:29;;;;;;;;;;;11.90;99.90;;;;;;5176402;27;19910;-40
2023/04/16 08:54:57;;;;;;;;;;;12.00;99.90;;;;;;5173542;27;20349;-41
2023/04/16 08:57:25;;;;;;;;;;;12.10;99.90;;;;;;5173511;27;20351;-41
2023/04/16 08:59:53;;;;;;;;;;;12.30;99.90;;;;;;5176553;27;19963;-41
2023/04/16 09:02:18;;;;;;;;;;;12.40;99.90;;;;;;5176067;27;19915;-40
2023/04/16 09:04:44;;;;;;;;;;;12.60;99.90;;;;;;5168468;27;20357;-43
2023/04/16 09:07:10;;;;;;;;;;;12.70;99.90;;;;;;5175424;27;19907;-41
2023/04/16 09:09:36;;;;;;;;;;;12.70;99.90;;;;;;5157465;27;19967;-42
2023/04/16 09:12:02;;;;;;;;;;;12.80;99.90;;;;;;5170471;27;19911;-41
2023/04/16 09:14:27;;;;;;;;;;;12.80;99.90;;;;;;5172092;27;19991;-42
2023/04/16 09:16:54;;;;;;;;;;;12.90;99.90;;;;;;5176276;27;19950;-41
2023/04/16 09:19:20;;;;;;;;;;;12.90;99.90;;;;;;5175926;27;20406;-42
2023/04/16 09:21:46;;;;;;;;;;;13.00;99.90;;;;;;5175642;27;19923;-41
2023/04/16 09:24:11;;;;;;;;;;;13.10;99.90;;;;;;5176132;27;19959;-41
2023/04/16 09:26:37;;;;;;;;;;;13.20;99.90;;;;;;5176255;27;19918;-42
2023/04/16 09:29:03;;;;;;;;;;;13.30;99.90;;;;;;5176732;27;20025;-41
2023/04/16 09:31:28;;;;;;;;;;;13.40;99.90;;;;;;5175602;27;20001;-42
2023/04/16 09:34:03;;;;;;;;;;;13.60;99.90;;;;;;5176828;27;20353;-42
2023/04/16 09:36:28;;;;;;;;;;;13.70;99.90;;;;;;5176248;27;20284;-41
2023/04/16 09:38:54;;;;;;;;;;;13.80;99.90;;;;;;5170535;27;19947;-41
2023/04/16 09:41:23;;;;;;;;;;;13.90;99.90;;;;;;5174955;27;19926;-42
2023/04/16 09:43:56;;;;;;;;;;;13.90;99.90;;;;;;5176744;27;19925;-41
2023/04/16 09:46:28;;;;;;;;;;;14.10;99.90;;;;;;5176626;27;20258;-42
2023/04/16 09:48:54;;;;;;;;;;;14.10;99.90;;;;;;5167077;27;20373;-42
2023/04/16 09:51:19;;;;;;;;;;;14.10;99.90;;;;;;5173926;27;19918;-41
2023/04/16 09:53:45;;;;;;;;;;;14.20;99.90;;;;;;5175512;27;20265;-43
2023/04/16 09:56:11;;;;;;;;;;;14.30;99.90;;;;;;5175880;27;20349;-41
2023/04/16 09:58:40;;;;;;;;;;;14.30;99.90;;;;;;5175181;27;19911;-41
2023/04/16 10:01:07;;;;;;;;;;;14.40;99.90;;;;;;5176124;27;19915;-41
2023/04/16 10:03:33;;;;;;;;;;;14.50;99.90;;;;;;5176955;27;20453;-43
2023/04/16 10:06:00;;;;;;;;;;;14.50;99.90;;;;;;5174422;27;20003;-41
2023/04/16 10:08:25;;;;;;;;;;;14.60;99.90;;;;;;5157655;27;20391;-42
2023/04/16 10:10:52;;;;;;;;;;;14.60;99.90;;;;;;5164768;27;19911;-42
2023/04/16 10:13:18;;;;;;;;;;;14.60;99.90;;;;;;5155365;27;20006;-43
2023/04/16 10:15:44;;;;;;;;;;;14.70;99.90;;;;;;5155955;27;20070;-41
2023/04/16 10:18:09;;;;;;;;;;;14.80;99.90;;;;;;5175654;27;19914;-42
2023/04/16 10:20:35;;;;;;;;;;;14.90;99.90;;;;;;5175539;27;19967;-42
2023/04/16 10:23:01;;;;;;;;;;;14.90;99.90;;;;;;5175622;27;20152;-41
2023/04/16 10:25:27;;;;;;;;;;;15.00;99.90;;;;;;5155795;27;19911;-41
2023/04/16 10:27:54;;;;;;;;;;;15.10;99.90;;;;;;5154733;27;19907;-43
2023/04/16 10:30:20;;;;;;;;;;;15.20;99.90;;;;;;5155419;27;20372;-42
2023/04/16 10:32:46;;;;;;;;;;;15.20;99.90;;;;;;5155359;27;19911;-41
2023/04/16 10:35:18;;;;;;;;;;;15.40;99.90;;;;;;5154747;27;19968;-42
2023/04/16 10:37:44;;;;;;;;;;;15.40;99.90;;;;;;5155457;27;19943;-43
2023/04/16 10:40:25;;;;;;;;;;;15.50;99.90;;;;;;5172726;27;19911;-43
2023/04/16 10:42:57;;;;;;;;;;;15.50;99.90;;;;;;5170468;27;19922;-42
2023/04/16 10:45:29;;;;;;;;;;;15.70;99.90;;;;;;5175982;27;19907;-42
2023/04/16 10:47:56;;;;;;;;;;;15.70;99.90;;;;;;5175284;27;19907;-41
2023/04/16 10:50:22;;;;;;;;;;;15.80;99.90;;;;;;5175636;27;20221;-42
2023/04/16 10:52:47;;;;;;;;;;;15.90;99.90;;;;;;5162110;27;20018;-41
2023/04/16 10:55:16;;;;;;;;;;;16.00;99.90;;;;;;5167950;27;19911;-41
2023/04/16 10:57:41;;;;;;;;;;;16.10;99.90;;;;;;5164775;27;19918;-44
2023/04/16 11:00:27;;;;;;;;;;;16.20;99.90;;;;;;5162523;27;19915;-43
2023/04/16 11:02:53;;;;;;;;;;;16.10;99.90;;;;;;5170052;27;20292;-41
2023/04/16 11:05:22;;;;;;;;;;;16.20;99.90;;;;;;5148322;27;20356;-41
2023/04/16 11:07:48;;;;;;;;;;;16.30;99.90;;;;;;5156143;27;19915;-42
2023/04/16 11:10:14;;;;;;;;;;;16.40;99.90;;;;;;5174495;27;19925;-42
2023/04/16 11:12:45;;;;;;;;;;;16.50;99.90;;;;;;5175583;27;20053;-43
2023/04/16 11:15:11;;;;;;;;;;;16.60;99.90;;;;;;5174646;27;19906;-41
2023/04/16 11:17:49;;;;;;;;;;;16.60;99.90;;;;;;5171251;27;19915;-41
2023/04/16 11:20:14;;;;;;;;;;;16.60;99.90;;;;;;5169010;27;19972;-41
2023/04/16 11:22:40;;;;;;;;;;;16.60;99.90;;;;;;5174285;27;19945;-43
2023/04/16 11:25:06;;;;;;;;;;;16.80;99.90;;;;;;5164906;27;19911;-42
2023/04/16 11:27:31;;;;;;;;;;;16.70;99.90;;;;;;5154332;27;19907;-41
2023/04/16 11:29:58;;;;;;;;;;;16.70;99.90;;;;;;5158194;27;19923;-42
2023/04/16 11:32:24;;;;;;;;;;;16.60;99.90;;;;;;5167059;27;19915;-42
2023/04/16 11:34:51;;;;;;;;;;;16.60;99.90;;;;;;5174663;27;20391;-41
2023/04/16 11:37:20;;;;;;;;;;;16.60;99.90;;;;;;5173927;27;19958;-42
2023/04/16 11:39:47;;;;;;;;;;;16.60;99.90;;;;;;5174180;27;19910;-41
2023/04/16 11:42:17;;;;;;;;;;;16.70;99.90;;;;;;5170470;27;19919;-42
2023/04/16 11:44:43;;;;;;;;;;;16.70;99.90;;;;;;5167083;27;19910;-44
2023/04/16 11:47:08;;;;;;;;;;;16.50;99.90;;;;;;5166289;27;19956;-41
2023/04/16 11:49:34;;;;;;;;;;;16.40;99.90;;;;;;5170099;27;19911;-41
2023/04/16 11:51:59;;;;;;;;;;;16.40;99.90;;;;;;5163959;27;20409;-43
2023/04/16 11:54:25;;;;;;;;;;;16.30;99.90;;;;;;5154358;27;19913;-41
2023/04/16 11:56:51;;;;;;;;;;;16.40;99.90;;;;;;5154237;27;19911;-41
2023/04/16 11:59:21;;;;;;;;;;;16.40;99.90;;;;;;5153531;27;19911;-41
2023/04/16 12:01:48;;;;;;;;;;;16.50;99.90;;;;;;5162876;27;19919;-42
2023/04/16 12:04:15;;;;;;;;;;;16.60;99.90;;;;;;5165959;27;19911;-41
2023/04/16 12:07:00;;;;;;;;;;;16.80;99.90;;;;;;5158458;27;20425;-43
2023/04/16 12:09:28;;;;;;;;;;;17.00;99.90;;;;;;5162010;27;19907;-42
2023/04/16 12:11:54;;;;;;;;;;;17.10;99.90;;;;;;5178211;27;20023;-42
2023/04/16 12:14:20;;;;;;;;;;;17.00;99.90;;;;;;5178789;27;20009;-41
2023/04/16 12:16:46;;;;;;;;;;;17.00;99.90;;;;;;5179140;27;19997;-43
2023/04/16 12:19:12;;;;;;;;;;;17.00;99.90;;;;;;5178383;27;19921;-42
2023/04/16 12:21:38;;;;;;;;;;;16.90;99.90;;;;;;5178315;27;19930;-42
2023/04/16 12:24:05;;;;;;;;;;;16.90;99.90;;;;;;5176319;27;19955;-42
2023/04/16 12:26:40;;;;;;;;;;;16.90;99.90;;;;;;5176105;27;20056;-41
2023/04/16 12:29:19;;;;;;;;;;;16.90;99.90;;;;;;5161270;27;19919;-42
2023/04/16 12:31:45;;;;;;;;;;;16.80;99.90;;;;;;5167018;27;20257;-41
2023/04/16 12:34:11;;;;;;;;;;;16.80;99.90;;;;;;5175734;27;19906;-43
2023/04/16 12:36:37;;;;;;;;;;;16.70;99.90;;;;;;5163586;27;20291;-41
2023/04/16 12:39:03;;;;;;;;;;;16.70;99.90;;;;;;5160199;27;20300;-42
2023/04/16 12:41:28;;;;;;;;;;;16.90;99.90;;;;;;5156954;27;19926;-41
2023/04/16 12:44:14;;;;;;;;;;;17.00;99.90;;;;;;5162381;27;19907;-42
2023/04/16 12:46:40;;;;;;;;;;;17.10;99.90;;;;;;5162849;27;19935;-42
2023/04/16 12:49:06;;;;;;;;;;;17.10;99.90;;;;;;5171523;27;19907;-42
2023/04/16 12:51:32;;;;;;;;;;;16.90;99.90;;;;;;5178362;27;19910;-42
2023/04/16 12:53:58;;;;;;;;;;;16.80;99.90;;;;;;5177820;27;20361;-43
2023/04/16 12:56:24;;;;;;;;;;;16.80;99.90;;;;;;5174706;27;20345;-43
2023/04/16 12:58:50;;;;;;;;;;;16.90;99.90;;;;;;5174979;27;19961;-42
2023/04/16 13:01:19;;;;;;;;;;;17.00;99.90;;;;;;5174781;27;19949;-41
2023/04/16 13:03:45;;;;;;;;;;;17.20;99.90;;;;;;5157212;27;19911;-41
2023/04/16 13:06:11;;;;;;;;;;;17.40;99.90;;;;;;5157370;27;19917;-42
2023/04/16 13:08:36;;;;;;;;;;;17.60;99.90;;;;;;5171312;27;19957;-43
2023/04/16 13:11:02;;;;;;;;;;;17.60;99.90;;;;;;5178160;27;19987;-42
2023/04/16 13:13:28;;;;;;;;;;;17.50;99.90;;;;;;5178028;27;19906;-42
2023/04/16 13:15:53;;;;;;;;;;;17.30;99.90;;;;;;5176622;27;19911;-42
2023/04/16 13:18:19;;;;;;;;;;;17.20;99.90;;;;;;5177260;27;20376;-42
2023/04/16 13:20:44;;;;;;;;;;;17.00;99.90;;;;;;5166974;27;19919;-42
2023/04/16 13:23:10;;;;;;;;;;;16.80;99.90;;;;;;5167019;27;19911;-42
2023/04/16 13:25:36;;;;;;;;;;;16.70;99.90;;;;;;5175099;27;20005;-43
2023/04/16 13:28:01;;;;;;;;;;;16.60;99.90;;;;;;5163809;27;20010;-42
2023/04/16 13:30:28;;;;;;;;;;;16.50;99.90;;;;;;5160518;27;19923;-41
2023/04/16 13:32:54;;;;;;;;;;;16.50;99.90;;;;;;5159488;27;19918;-42
2023/04/16 13:35:20;;;;;;;;;;;16.40;99.90;;;;;;5168125;27;19958;-41
2023/04/16 13:37:45;;;;;;;;;;;16.40;99.90;;;;;;5175944;27;19995;-43
2023/04/16 13:40:11;;;;;;;;;;;16.30;99.90;;;;;;5162997;27;19911;-42
2023/04/16 13:42:36;;;;;;;;;;;16.30;99.90;;;;;;5177374;27;19928;-43
2023/04/16 13:45:02;;;;;;;;;;;16.30;99.90;;;;;;5176623;27;19906;-42
2023/04/16 13:47:27;;;;;;;;;;;16.30;99.90;;;;;;5157521;27;20006;-42
2023/04/16 13:49:53;;;;;;;;;;;16.20;99.90;;;;;;5160306;27;19911;-41
2023/04/16 13:52:18;;;;;;;;;;;16.20;99.90;;;;;;5176761;27;19913;-42
2023/04/16 13:54:44;;;;;;;;;;;16.20;99.90;;;;;;5177323;27;19954;-42
2023/04/16 13:57:10;;;;;;;;;;;16.20;99.90;;;;;;5176424;27;19907;-41
2023/04/16 13:59:35;;;;;;;;;;;16.20;99.90;;;;;;5174184;27;19918;-43
2023/04/16 14:02:01;;;;;;;;;;;16.20;99.90;;;;;;5166575;27;19951;-41
2023/04/16 14:04:26;;;;;;;;;;;16.10;99.90;;;;;;5167742;27;19915;-42
2023/04/16 14:06:51;;;;;;;;;;;16.10;99.90;;;;;;5176522;27;19915;-42
2023/04/16 14:09:17;;;;;;;;;;;16.10;99.90;;;;;;5157346;27;20285;-41
2023/04/16 14:11:42;;;;;;;;;;;16.00;99.90;;;;;;5165039;27;19907;-41
2023/04/16 14:14:08;;;;;;;;;;;16.00;99.90;;;;;;5174227;27;20052;-43
2023/04/16 14:16:33;;;;;;;;;;;16.00;99.90;;;;;;5169211;27;19911;-41